sensor_id;sensor_type;location;lat;lon;timestamp;P1;durP1;ratioP1;P2;durP2;ratioP2
27985;SDS011;15453;53.692;10.168;2022-07-18T00:00:22;3.85;;;1.80;;
27985;SDS011;15453;53.692;10.168;2022-07-18T00:02:47;2.20;;;1.50;;
27985;SDS011;15453;53.692;10.168;2022-07-18T00:05:12;3.78;;;1.42;;
27985;SDS011;15453;53.692;10.168;2022-07-18T00:07:38;1.70;;;1.30;;
27985;SDS011;15453;53.692;10.168;2022-07-18T00:10:03;2.22;;;1.70;;
27985;SDS011;15453;53.692;10.168;2022-07-18T00:12:29;1.85;;;1.42;;
27985;SDS011;15453;53.692;10.168;2022-07-18T00:14:55;2.17;;;1.60;;
27985;SDS011;15453;53.692;10.168;2022-07-18T00:17:20;2.40;;;1.50;;
27985;SDS011;15453;53.692;10.168;2022-07-18T00:19:45;2.25;;;1.58;;
27985;SDS011;15453;53.692;10.168;2022-07-18T00:22:10;3.30;;;1.45;;
27985;SDS011;15453;53.692;10.168;2022-07-18T00:24:36;3.67;;;1.40;;
27985;SDS011;15453;53.692;10.168;2022-07-18T00:27:02;1.95;;;1.63;;
27985;SDS011;15453;53.692;10.168;2022-07-18T00:29:29;1.65;;;1.20;;
27985;SDS011;15453;53.692;10.168;2022-07-18T00:31:55;2.15;;;1.45;;
27985;SDS011;15453;53.692;10.168;2022-07-18T00:34:20;1.45;;;1.00;;
27985;SDS011;15453;53.692;10.168;2022-07-18T00:36:45;1.92;;;1.40;;
27985;SDS011;15453;53.692;10.168;2022-07-18T00:39:11;2.78;;;1.55;;
27985;SDS011;15453;53.692;10.168;2022-07-18T00:41:36;1.88;;;1.40;;
27985;SDS011;15453;53.692;10.168;2022-07-18T00:44:01;1.95;;;1.35;;
27985;SDS011;15453;53.692;10.168;2022-07-18T00:46:27;2.78;;;1.63;;
27985;SDS011;15453;53.692;10.168;2022-07-18T00:48:53;2.72;;;1.60;;
27985;SDS011;15453;53.692;10.168;2022-07-18T00:51:20;2.63;;;1.70;;
27985;SDS011;15453;53.692;10.168;2022-07-18T00:53:46;2.85;;;1.50;;
27985;SDS011;15453;53.692;10.168;2022-07-18T00:56:12;3.83;;;1.70;;
27985;SDS011;15453;53.692;10.168;2022-07-18T00:58:38;2.60;;;1.50;;
27985;SDS011;15453;53.692;10.168;2022-07-18T01:01:04;2.40;;;1.73;;
27985;SDS011;15453;53.692;10.168;2022-07-18T01:03:48;2.67;;;1.60;;
27985;SDS011;15453;53.692;10.168;2022-07-18T01:06:14;1.63;;;1.30;;
27985;SDS011;15453;53.692;10.168;2022-07-18T01:08:39;4.07;;;1.77;;
27985;SDS011;15453;53.692;10.168;2022-07-18T01:11:07;4.07;;;1.88;;
27985;SDS011;15453;53.692;10.168;2022-07-18T01:13:33;2.30;;;1.70;;
27985;SDS011;15453;53.692;10.168;2022-07-18T01:15:58;2.50;;;1.52;;
27985;SDS011;15453;53.692;10.168;2022-07-18T01:18:23;3.53;;;2.03;;
27985;SDS011;15453;53.692;10.168;2022-07-18T01:20:49;2.42;;;1.67;;
27985;SDS011;15453;53.692;10.168;2022-07-18T01:23:14;3.42;;;1.50;;
27985;SDS011;15453;53.692;10.168;2022-07-18T01:25:39;3.13;;;1.77;;
27985;SDS011;15453;53.692;10.168;2022-07-18T01:28:05;2.80;;;1.75;;
27985;SDS011;15453;53.692;10.168;2022-07-18T01:30:30;3.17;;;1.55;;
27985;SDS011;15453;53.692;10.168;2022-07-18T01:32:56;2.58;;;1.50;;
27985;SDS011;15453;53.692;10.168;2022-07-18T01:35:23;3.13;;;1.70;;
27985;SDS011;15453;53.692;10.168;2022-07-18T01:37:50;2.50;;;1.58;;
27985;SDS011;15453;53.692;10.168;2022-07-18T01:40:16;2.00;;;1.55;;
27985;SDS011;15453;53.692;10.168;2022-07-18T01:42:41;2.40;;;1.50;;
27985;SDS011;15453;53.692;10.168;2022-07-18T01:45:07;3.05;;;1.77;;
27985;SDS011;15453;53.692;10.168;2022-07-18T01:47:32;1.83;;;1.48;;
27985;SDS011;15453;53.692;10.168;2022-07-18T01:49:57;2.70;;;1.60;;
27985;SDS011;15453;53.692;10.168;2022-07-18T01:52:22;2.15;;;1.50;;
27985;SDS011;15453;53.692;10.168;2022-07-18T01:54:48;2.80;;;1.33;;
27985;SDS011;15453;53.692;10.168;2022-07-18T01:57:13;3.65;;;1.55;;
27985;SDS011;15453;53.692;10.168;2022-07-18T01:59:38;2.08;;;1.65;;
27985;SDS011;15453;53.692;10.168;2022-07-18T02:02:04;2.20;;;1.42;;
27985;SDS011;15453;53.692;10.168;2022-07-18T02:04:30;1.77;;;1.40;;
27985;SDS011;15453;53.692;10.168;2022-07-18T02:07:14;2.10;;;1.55;;
27985;SDS011;15453;53.692;10.168;2022-07-18T02:09:39;4.88;;;1.60;;
27985;SDS011;15453;53.692;10.168;2022-07-18T02:12:04;1.85;;;1.42;;
27985;SDS011;15453;53.692;10.168;2022-07-18T02:14:30;2.58;;;1.52;;
27985;SDS011;15453;53.692;10.168;2022-07-18T02:16:55;2.50;;;1.77;;
27985;SDS011;15453;53.692;10.168;2022-07-18T02:19:20;2.85;;;1.52;;
27985;SDS011;15453;53.692;10.168;2022-07-18T02:21:45;2.25;;;1.50;;
27985;SDS011;15453;53.692;10.168;2022-07-18T02:24:10;3.20;;;1.65;;
27985;SDS011;15453;53.692;10.168;2022-07-18T02:26:36;2.28;;;1.50;;
27985;SDS011;15453;53.692;10.168;2022-07-18T02:29:01;1.90;;;1.60;;
27985;SDS011;15453;53.692;10.168;2022-07-18T02:31:26;2.75;;;1.88;;
27985;SDS011;15453;53.692;10.168;2022-07-18T02:33:51;1.90;;;1.40;;
27985;SDS011;15453;53.692;10.168;2022-07-18T02:36:17;2.10;;;1.60;;
27985;SDS011;15453;53.692;10.168;2022-07-18T02:38:42;2.17;;;1.40;;
27985;SDS011;15453;53.692;10.168;2022-07-18T02:41:07;2.13;;;1.48;;
27985;SDS011;15453;53.692;10.168;2022-07-18T02:43:32;1.90;;;1.63;;
27985;SDS011;15453;53.692;10.168;2022-07-18T02:45:58;2.15;;;1.50;;
27985;SDS011;15453;53.692;10.168;2022-07-18T02:48:23;3.55;;;1.50;;
27985;SDS011;15453;53.692;10.168;2022-07-18T02:50:48;2.45;;;1.60;;
27985;SDS011;15453;53.692;10.168;2022-07-18T02:53:14;2.15;;;1.60;;
27985;SDS011;15453;53.692;10.168;2022-07-18T02:55:39;3.20;;;1.55;;
27985;SDS011;15453;53.692;10.168;2022-07-18T02:58:04;2.47;;;1.77;;
27985;SDS011;15453;53.692;10.168;2022-07-18T03:00:29;1.70;;;1.33;;
27985;SDS011;15453;53.692;10.168;2022-07-18T03:02:55;2.15;;;1.70;;
27985;SDS011;15453;53.692;10.168;2022-07-18T03:05:20;4.30;;;1.65;;
27985;SDS011;15453;53.692;10.168;2022-07-18T03:07:45;2.22;;;1.83;;
27985;SDS011;15453;53.692;10.168;2022-07-18T03:10:11;2.67;;;1.80;;
27985;SDS011;15453;53.692;10.168;2022-07-18T03:12:36;3.33;;;1.98;;
27985;SDS011;15453;53.692;10.168;2022-07-18T03:15:01;2.13;;;1.52;;
27985;SDS011;15453;53.692;10.168;2022-07-18T03:17:26;2.78;;;1.73;;
27985;SDS011;15453;53.692;10.168;2022-07-18T03:19:52;3.72;;;1.60;;
27985;SDS011;15453;53.692;10.168;2022-07-18T03:22:17;2.47;;;1.67;;
27985;SDS011;15453;53.692;10.168;2022-07-18T03:24:42;2.90;;;1.85;;
27985;SDS011;15453;53.692;10.168;2022-07-18T03:27:08;2.65;;;1.45;;
27985;SDS011;15453;53.692;10.168;2022-07-18T03:29:33;2.30;;;1.70;;
27985;SDS011;15453;53.692;10.168;2022-07-18T03:31:58;2.70;;;1.77;;
27985;SDS011;15453;53.692;10.168;2022-07-18T03:34:23;2.10;;;1.50;;
27985;SDS011;15453;53.692;10.168;2022-07-18T03:36:49;3.08;;;1.60;;
27985;SDS011;15453;53.692;10.168;2022-07-18T03:39:14;2.90;;;2.15;;
27985;SDS011;15453;53.692;10.168;2022-07-18T03:41:39;2.60;;;1.73;;
27985;SDS011;15453;53.692;10.168;2022-07-18T03:44:05;2.55;;;1.77;;
27985;SDS011;15453;53.692;10.168;2022-07-18T03:46:31;4.10;;;1.58;;
27985;SDS011;15453;53.692;10.168;2022-07-18T03:48:56;1.80;;;1.55;;
27985;SDS011;15453;53.692;10.168;2022-07-18T03:51:22;2.25;;;1.70;;
27985;SDS011;15453;53.692;10.168;2022-07-18T03:53:47;3.92;;;2.20;;
27985;SDS011;15453;53.692;10.168;2022-07-18T03:56:13;4.32;;;1.80;;
27985;SDS011;15453;53.692;10.168;2022-07-18T03:58:38;3.13;;;1.95;;
27985;SDS011;15453;53.692;10.168;2022-07-18T04:01:03;6.70;;;2.30;;
27985;SDS011;15453;53.692;10.168;2022-07-18T04:03:29;3.67;;;1.90;;
27985;SDS011;15453;53.692;10.168;2022-07-18T04:05:54;3.40;;;2.10;;
27985;SDS011;15453;53.692;10.168;2022-07-18T04:08:20;4.32;;;2.30;;
27985;SDS011;15453;53.692;10.168;2022-07-18T04:10:45;2.83;;;1.70;;
27985;SDS011;15453;53.692;10.168;2022-07-18T04:13:10;4.03;;;2.30;;
27985;SDS011;15453;53.692;10.168;2022-07-18T04:15:36;3.30;;;2.40;;
27985;SDS011;15453;53.692;10.168;2022-07-18T04:18:02;2.75;;;1.63;;
27985;SDS011;15453;53.692;10.168;2022-07-18T04:20:28;2.95;;;2.15;;
27985;SDS011;15453;53.692;10.168;2022-07-18T04:22:54;3.38;;;1.90;;
27985;SDS011;15453;53.692;10.168;2022-07-18T04:25:22;3.08;;;2.20;;
27985;SDS011;15453;53.692;10.168;2022-07-18T04:27:49;3.72;;;2.20;;
27985;SDS011;15453;53.692;10.168;2022-07-18T04:30:16;5.03;;;2.65;;
27985;SDS011;15453;53.692;10.168;2022-07-18T04:32:43;3.75;;;2.00;;
27985;SDS011;15453;53.692;10.168;2022-07-18T04:35:08;4.50;;;2.28;;
27985;SDS011;15453;53.692;10.168;2022-07-18T04:37:34;5.32;;;2.10;;
27985;SDS011;15453;53.692;10.168;2022-07-18T04:39:59;3.63;;;2.22;;
27985;SDS011;15453;53.692;10.168;2022-07-18T04:42:25;4.05;;;1.88;;
27985;SDS011;15453;53.692;10.168;2022-07-18T04:44:51;3.95;;;2.13;;
27985;SDS011;15453;53.692;10.168;2022-07-18T04:47:16;3.75;;;1.92;;
27985;SDS011;15453;53.692;10.168;2022-07-18T04:49:42;4.22;;;2.15;;
27985;SDS011;15453;53.692;10.168;2022-07-18T04:52:07;5.18;;;2.13;;
27985;SDS011;15453;53.692;10.168;2022-07-18T04:54:32;2.58;;;1.85;;
27985;SDS011;15453;53.692;10.168;2022-07-18T04:56:57;4.05;;;2.40;;
27985;SDS011;15453;53.692;10.168;2022-07-18T04:59:23;3.83;;;2.20;;
27985;SDS011;15453;53.692;10.168;2022-07-18T05:01:48;4.00;;;2.15;;
27985;SDS011;15453;53.692;10.168;2022-07-18T05:04:13;4.25;;;2.00;;
27985;SDS011;15453;53.692;10.168;2022-07-18T05:06:38;2.33;;;1.88;;
27985;SDS011;15453;53.692;10.168;2022-07-18T05:09:04;3.17;;;2.03;;
27985;SDS011;15453;53.692;10.168;2022-07-18T05:11:29;3.65;;;2.22;;
27985;SDS011;15453;53.692;10.168;2022-07-18T05:13:54;3.78;;;2.20;;
27985;SDS011;15453;53.692;10.168;2022-07-18T05:16:20;5.05;;;2.20;;
27985;SDS011;15453;53.692;10.168;2022-07-18T05:18:45;5.88;;;2.63;;
27985;SDS011;15453;53.692;10.168;2022-07-18T05:21:10;3.55;;;2.13;;
27985;SDS011;15453;53.692;10.168;2022-07-18T05:23:35;4.20;;;2.47;;
27985;SDS011;15453;53.692;10.168;2022-07-18T05:26:01;3.70;;;2.20;;
27985;SDS011;15453;53.692;10.168;2022-07-18T05:28:26;3.63;;;2.25;;
27985;SDS011;15453;53.692;10.168;2022-07-18T05:30:51;4.40;;;2.60;;
27985;SDS011;15453;53.692;10.168;2022-07-18T05:33:19;3.00;;;2.17;;
27985;SDS011;15453;53.692;10.168;2022-07-18T05:35:44;3.97;;;2.50;;
27985;SDS011;15453;53.692;10.168;2022-07-18T05:38:09;3.63;;;2.20;;
27985;SDS011;15453;53.692;10.168;2022-07-18T05:40:35;7.65;;;2.90;;
27985;SDS011;15453;53.692;10.168;2022-07-18T05:43:00;4.50;;;2.50;;
27985;SDS011;15453;53.692;10.168;2022-07-18T05:45:25;8.38;;;5.05;;
27985;SDS011;15453;53.692;10.168;2022-07-18T05:47:51;8.57;;;3.22;;
27985;SDS011;15453;53.692;10.168;2022-07-18T05:50:17;4.43;;;3.13;;
27985;SDS011;15453;53.692;10.168;2022-07-18T05:52:42;5.03;;;2.60;;
27985;SDS011;15453;53.692;10.168;2022-07-18T05:55:07;4.45;;;2.83;;
27985;SDS011;15453;53.692;10.168;2022-07-18T05:57:34;3.50;;;2.58;;
27985;SDS011;15453;53.692;10.168;2022-07-18T06:00:00;4.68;;;3.20;;
27985;SDS011;15453;53.692;10.168;2022-07-18T06:02:25;3.83;;;2.50;;
27985;SDS011;15453;53.692;10.168;2022-07-18T06:04:50;4.18;;;2.95;;
27985;SDS011;15453;53.692;10.168;2022-07-18T06:07:15;6.43;;;2.83;;
27985;SDS011;15453;53.692;10.168;2022-07-18T06:09:41;4.55;;;2.90;;
27985;SDS011;15453;53.692;10.168;2022-07-18T06:12:06;5.38;;;3.10;;
27985;SDS011;15453;53.692;10.168;2022-07-18T06:14:31;4.00;;;2.88;;
27985;SDS011;15453;53.692;10.168;2022-07-18T06:16:57;4.90;;;3.03;;
27985;SDS011;15453;53.692;10.168;2022-07-18T06:19:23;4.38;;;3.15;;
27985;SDS011;15453;53.692;10.168;2022-07-18T06:21:48;6.07;;;3.38;;
27985;SDS011;15453;53.692;10.168;2022-07-18T06:24:13;4.07;;;2.95;;
27985;SDS011;15453;53.692;10.168;2022-07-18T06:26:39;5.82;;;3.20;;
27985;SDS011;15453;53.692;10.168;2022-07-18T06:29:04;4.80;;;2.80;;
27985;SDS011;15453;53.692;10.168;2022-07-18T06:31:29;11.48;;;3.85;;
27985;SDS011;15453;53.692;10.168;2022-07-18T06:33:54;5.75;;;3.63;;
27985;SDS011;15453;53.692;10.168;2022-07-18T06:36:20;5.78;;;3.85;;
27985;SDS011;15453;53.692;10.168;2022-07-18T06:38:48;5.07;;;3.22;;
27985;SDS011;15453;53.692;10.168;2022-07-18T06:41:14;5.40;;;3.50;;
27985;SDS011;15453;53.692;10.168;2022-07-18T06:43:39;5.68;;;3.53;;
27985;SDS011;15453;53.692;10.168;2022-07-18T06:46:06;4.45;;;3.58;;
27985;SDS011;15453;53.692;10.168;2022-07-18T06:48:31;5.70;;;3.38;;
27985;SDS011;15453;53.692;10.168;2022-07-18T06:50:58;5.65;;;3.70;;
27985;SDS011;15453;53.692;10.168;2022-07-18T06:53:25;5.68;;;3.72;;
27985;SDS011;15453;53.692;10.168;2022-07-18T06:55:50;6.82;;;3.67;;
27985;SDS011;15453;53.692;10.168;2022-07-18T06:58:15;6.05;;;4.07;;
27985;SDS011;15453;53.692;10.168;2022-07-18T07:00:41;5.95;;;3.85;;
27985;SDS011;15453;53.692;10.168;2022-07-18T07:03:06;6.35;;;4.50;;
27985;SDS011;15453;53.692;10.168;2022-07-18T07:05:31;6.80;;;4.15;;
27985;SDS011;15453;53.692;10.168;2022-07-18T07:07:57;6.82;;;4.47;;
27985;SDS011;15453;53.692;10.168;2022-07-18T07:10:23;8.80;;;5.00;;
27985;SDS011;15453;53.692;10.168;2022-07-18T07:12:49;9.75;;;4.90;;
27985;SDS011;15453;53.692;10.168;2022-07-18T07:15:17;13.30;;;9.55;;
27985;SDS011;15453;53.692;10.168;2022-07-18T07:17:44;9.50;;;6.87;;
27985;SDS011;15453;53.692;10.168;2022-07-18T07:20:10;8.05;;;5.45;;
27985;SDS011;15453;53.692;10.168;2022-07-18T07:22:45;10.07;;;5.95;;
27985;SDS011;15453;53.692;10.168;2022-07-18T07:25:15;5.93;;;4.95;;
27985;SDS011;15453;53.692;10.168;2022-07-18T07:27:41;8.65;;;5.53;;
27985;SDS011;15453;53.692;10.168;2022-07-18T07:30:07;9.75;;;5.95;;
27985;SDS011;15453;53.692;10.168;2022-07-18T07:32:39;6.60;;;5.05;;
27985;SDS011;15453;53.692;10.168;2022-07-18T07:35:07;9.40;;;5.38;;
27985;SDS011;15453;53.692;10.168;2022-07-18T07:37:36;10.50;;;6.03;;
27985;SDS011;15453;53.692;10.168;2022-07-18T07:40:02;7.10;;;5.55;;
27985;SDS011;15453;53.692;10.168;2022-07-18T07:42:27;9.07;;;6.40;;
27985;SDS011;15453;53.692;10.168;2022-07-18T07:44:53;8.55;;;6.25;;
27985;SDS011;15453;53.692;10.168;2022-07-18T07:47:18;11.93;;;5.72;;
27985;SDS011;15453;53.692;10.168;2022-07-18T07:49:43;9.30;;;4.85;;
27985;SDS011;15453;53.692;10.168;2022-07-18T07:52:08;6.90;;;5.47;;
27985;SDS011;15453;53.692;10.168;2022-07-18T07:54:36;10.25;;;5.20;;
27985;SDS011;15453;53.692;10.168;2022-07-18T07:57:02;8.75;;;5.25;;
27985;SDS011;15453;53.692;10.168;2022-07-18T07:59:27;7.32;;;5.25;;
27985;SDS011;15453;53.692;10.168;2022-07-18T08:01:53;8.35;;;5.32;;
27985;SDS011;15453;53.692;10.168;2022-07-18T08:04:19;9.38;;;5.30;;
27985;SDS011;15453;53.692;10.168;2022-07-18T08:06:45;10.55;;;5.25;;
27985;SDS011;15453;53.692;10.168;2022-07-18T08:09:10;7.38;;;5.28;;
27985;SDS011;15453;53.692;10.168;2022-07-18T08:11:35;12.23;;;5.28;;
27985;SDS011;15453;53.692;10.168;2022-07-18T08:14:00;8.88;;;5.55;;
27985;SDS011;15453;53.692;10.168;2022-07-18T08:16:26;8.20;;;5.32;;
27985;SDS011;15453;53.692;10.168;2022-07-18T08:18:51;7.47;;;5.53;;
27985;SDS011;15453;53.692;10.168;2022-07-18T08:21:16;7.57;;;5.43;;
27985;SDS011;15453;53.692;10.168;2022-07-18T08:23:41;7.18;;;5.05;;
27985;SDS011;15453;53.692;10.168;2022-07-18T08:26:08;7.32;;;5.45;;
27985;SDS011;15453;53.692;10.168;2022-07-18T08:28:33;14.18;;;5.78;;
27985;SDS011;15453;53.692;10.168;2022-07-18T08:30:58;7.40;;;5.13;;
27985;SDS011;15453;53.692;10.168;2022-07-18T08:33:23;10.85;;;5.10;;
27985;SDS011;15453;53.692;10.168;2022-07-18T08:35:49;6.40;;;4.77;;
27985;SDS011;15453;53.692;10.168;2022-07-18T08:38:14;7.05;;;5.47;;
27985;SDS011;15453;53.692;10.168;2022-07-18T08:40:39;8.40;;;5.28;;
27985;SDS011;15453;53.692;10.168;2022-07-18T08:43:05;13.50;;;5.70;;
27985;SDS011;15453;53.692;10.168;2022-07-18T08:45:30;7.43;;;5.10;;
27985;SDS011;15453;53.692;10.168;2022-07-18T08:47:55;7.95;;;5.18;;
27985;SDS011;15453;53.692;10.168;2022-07-18T08:50:21;10.07;;;5.20;;
27985;SDS011;15453;53.692;10.168;2022-07-18T08:52:46;7.72;;;5.03;;
27985;SDS011;15453;53.692;10.168;2022-07-18T08:55:12;7.88;;;5.20;;
27985;SDS011;15453;53.692;10.168;2022-07-18T08:57:39;9.90;;;5.65;;
27985;SDS011;15453;53.692;10.168;2022-07-18T09:00:05;7.70;;;5.40;;
27985;SDS011;15453;53.692;10.168;2022-07-18T09:02:31;10.60;;;5.50;;
27985;SDS011;15453;53.692;10.168;2022-07-18T09:04:57;7.65;;;5.32;;
27985;SDS011;15453;53.692;10.168;2022-07-18T09:07:26;6.80;;;4.88;;
27985;SDS011;15453;53.692;10.168;2022-07-18T09:09:57;7.28;;;5.45;;
27985;SDS011;15453;53.692;10.168;2022-07-18T09:12:25;7.20;;;5.38;;
27985;SDS011;15453;53.692;10.168;2022-07-18T09:14:51;8.07;;;5.30;;
27985;SDS011;15453;53.692;10.168;2022-07-18T09:22:22;7.75;;;4.82;;
27985;SDS011;15453;53.692;10.168;2022-07-18T09:24:48;8.73;;;5.18;;
27985;SDS011;15453;53.692;10.168;2022-07-18T09:27:29;7.63;;;4.93;;
27985;SDS011;15453;53.692;10.168;2022-07-18T09:32:55;7.35;;;5.68;;
27985;SDS011;15453;53.692;10.168;2022-07-18T09:35:32;9.60;;;5.05;;
27985;SDS011;15453;53.692;10.168;2022-07-18T09:38:07;7.80;;;5.37;;
27985;SDS011;15453;53.692;10.168;2022-07-18T09:40:35;6.13;;;4.65;;
27985;SDS011;15453;53.692;10.168;2022-07-18T09:43:03;5.95;;;4.55;;
27985;SDS011;15453;53.692;10.168;2022-07-18T09:48:10;7.65;;;5.13;;
27985;SDS011;15453;53.692;10.168;2022-07-18T09:50:40;7.03;;;4.63;;
27985;SDS011;15453;53.692;10.168;2022-07-18T09:55:45;7.28;;;5.50;;
27985;SDS011;15453;53.692;10.168;2022-07-18T09:58:16;7.97;;;5.35;;
27985;SDS011;15453;53.692;10.168;2022-07-18T10:00:44;7.47;;;5.10;;
27985;SDS011;15453;53.692;10.168;2022-07-18T10:03:10;9.25;;;5.20;;
27985;SDS011;15453;53.692;10.168;2022-07-18T10:05:36;11.40;;;5.30;;
27985;SDS011;15453;53.692;10.168;2022-07-18T10:08:05;8.55;;;5.57;;
27985;SDS011;15453;53.692;10.168;2022-07-18T10:10:33;8.32;;;4.88;;
27985;SDS011;15453;53.692;10.168;2022-07-18T10:12:59;7.82;;;5.03;;
27985;SDS011;15453;53.692;10.168;2022-07-18T10:15:27;8.02;;;5.18;;
27985;SDS011;15453;53.692;10.168;2022-07-18T10:17:54;8.80;;;5.68;;
27985;SDS011;15453;53.692;10.168;2022-07-18T10:20:24;8.52;;;5.32;;
27985;SDS011;15453;53.692;10.168;2022-07-18T10:22:59;7.28;;;5.20;;
27985;SDS011;15453;53.692;10.168;2022-07-18T10:25:33;8.15;;;5.22;;
27985;SDS011;15453;53.692;10.168;2022-07-18T10:28:12;7.22;;;4.90;;
27985;SDS011;15453;53.692;10.168;2022-07-18T10:30:42;8.57;;;5.47;;
27985;SDS011;15453;53.692;10.168;2022-07-18T10:36:23;6.45;;;4.75;;
27985;SDS011;15453;53.692;10.168;2022-07-18T10:41:33;8.90;;;4.72;;
27985;SDS011;15453;53.692;10.168;2022-07-18T10:47:01;23.80;;;15.80;;
27985;SDS011;15453;53.692;10.168;2022-07-18T10:55:25;7.88;;;4.82;;
27985;SDS011;15453;53.692;10.168;2022-07-18T11:00:23;7.07;;;4.30;;
27985;SDS011;15453;53.692;10.168;2022-07-18T11:03:08;10.15;;;4.53;;
27985;SDS011;15453;53.692;10.168;2022-07-18T11:05:35;8.30;;;4.93;;
27985;SDS011;15453;53.692;10.168;2022-07-18T11:13:20;7.95;;;5.32;;
27985;SDS011;15453;53.692;10.168;2022-07-18T11:16:20;9.85;;;5.80;;
27985;SDS011;15453;53.692;10.168;2022-07-18T11:21:25;7.65;;;5.00;;
27985;SDS011;15453;53.692;10.168;2022-07-18T11:23:53;7.88;;;5.13;;
27985;SDS011;15453;53.692;10.168;2022-07-18T11:26:24;7.78;;;4.80;;
27985;SDS011;15453;53.692;10.168;2022-07-18T11:28:57;7.72;;;4.45;;
27985;SDS011;15453;53.692;10.168;2022-07-18T11:31:24;8.05;;;4.25;;
27985;SDS011;15453;53.692;10.168;2022-07-18T11:33:49;8.75;;;4.38;;
27985;SDS011;15453;53.692;10.168;2022-07-18T11:36:17;5.90;;;4.25;;
27985;SDS011;15453;53.692;10.168;2022-07-18T11:41:13;7.55;;;4.25;;
27985;SDS011;15453;53.692;10.168;2022-07-18T11:43:39;5.85;;;3.85;;
27985;SDS011;15453;53.692;10.168;2022-07-18T11:46:05;6.40;;;4.00;;
27985;SDS011;15453;53.692;10.168;2022-07-18T11:48:32;6.35;;;4.30;;
27985;SDS011;15453;53.692;10.168;2022-07-18T11:50:59;6.80;;;4.03;;
27985;SDS011;15453;53.692;10.168;2022-07-18T11:53:24;7.13;;;4.20;;
27985;SDS011;15453;53.692;10.168;2022-07-18T11:55:50;5.32;;;3.70;;
27985;SDS011;15453;53.692;10.168;2022-07-18T11:58:18;5.30;;;3.22;;
27985;SDS011;15453;53.692;10.168;2022-07-18T12:00:43;5.50;;;3.60;;
27985;SDS011;15453;53.692;10.168;2022-07-18T12:03:20;6.82;;;4.22;;
27985;SDS011;15453;53.692;10.168;2022-07-18T12:05:49;6.50;;;4.20;;
27985;SDS011;15453;53.692;10.168;2022-07-18T12:08:23;6.72;;;4.38;;
27985;SDS011;15453;53.692;10.168;2022-07-18T12:11:14;4.93;;;3.80;;
27985;SDS011;15453;53.692;10.168;2022-07-18T12:13:53;5.75;;;4.13;;
27985;SDS011;15453;53.692;10.168;2022-07-18T12:16:24;9.57;;;4.05;;
27985;SDS011;15453;53.692;10.168;2022-07-18T12:19:10;8.88;;;4.53;;
27985;SDS011;15453;53.692;10.168;2022-07-18T12:21:38;6.85;;;4.55;;
27985;SDS011;15453;53.692;10.168;2022-07-18T12:32:55;5.85;;;3.50;;
27985;SDS011;15453;53.692;10.168;2022-07-18T12:35:30;6.45;;;4.00;;
27985;SDS011;15453;53.692;10.168;2022-07-18T12:37:58;5.70;;;4.20;;
27985;SDS011;15453;53.692;10.168;2022-07-18T12:40:25;7.45;;;4.88;;
27985;SDS011;15453;53.692;10.168;2022-07-18T12:43:03;8.25;;;5.20;;
27985;SDS011;15453;53.692;10.168;2022-07-18T12:45:31;6.83;;;4.03;;
27985;SDS011;15453;53.692;10.168;2022-07-18T12:47:56;6.25;;;4.05;;
27985;SDS011;15453;53.692;10.168;2022-07-18T12:50:22;4.60;;;3.63;;
27985;SDS011;15453;53.692;10.168;2022-07-18T12:52:47;5.70;;;3.63;;
27985;SDS011;15453;53.692;10.168;2022-07-18T12:55:12;7.13;;;3.83;;
27985;SDS011;15453;53.692;10.168;2022-07-18T12:57:37;6.60;;;3.40;;
27985;SDS011;15453;53.692;10.168;2022-07-18T13:00:03;7.07;;;3.30;;
27985;SDS011;15453;53.692;10.168;2022-07-18T13:02:29;5.07;;;3.80;;
27985;SDS011;15453;53.692;10.168;2022-07-18T13:04:54;3.85;;;3.28;;
27985;SDS011;15453;53.692;10.168;2022-07-18T13:07:19;6.07;;;3.00;;
27985;SDS011;15453;53.692;10.168;2022-07-18T13:09:44;6.60;;;3.13;;
27985;SDS011;15453;53.692;10.168;2022-07-18T13:12:10;5.17;;;3.23;;
27985;SDS011;15453;53.692;10.168;2022-07-18T13:14:35;4.40;;;3.17;;
27985;SDS011;15453;53.692;10.168;2022-07-18T13:17:00;4.60;;;3.13;;
27985;SDS011;15453;53.692;10.168;2022-07-18T13:19:26;6.45;;;3.20;;
27985;SDS011;15453;53.692;10.168;2022-07-18T13:21:51;4.60;;;3.45;;
27985;SDS011;15453;53.692;10.168;2022-07-18T13:24:16;8.32;;;3.47;;
27985;SDS011;15453;53.692;10.168;2022-07-18T13:26:42;5.63;;;3.42;;
27985;SDS011;15453;53.692;10.168;2022-07-18T13:29:07;5.85;;;3.83;;
27985;SDS011;15453;53.692;10.168;2022-07-18T13:31:33;9.68;;;3.60;;
27985;SDS011;15453;53.692;10.168;2022-07-18T13:33:59;4.38;;;3.15;;
27985;SDS011;15453;53.692;10.168;2022-07-18T13:36:25;4.93;;;3.35;;
27985;SDS011;15453;53.692;10.168;2022-07-18T13:38:50;6.40;;;3.90;;
27985;SDS011;15453;53.692;10.168;2022-07-18T13:41:15;5.93;;;3.30;;
27985;SDS011;15453;53.692;10.168;2022-07-18T13:43:41;9.00;;;3.55;;
27985;SDS011;15453;53.692;10.168;2022-07-18T13:46:07;8.13;;;3.33;;
27985;SDS011;15453;53.692;10.168;2022-07-18T13:48:33;6.28;;;3.05;;
27985;SDS011;15453;53.692;10.168;2022-07-18T13:50:58;5.22;;;2.90;;
27985;SDS011;15453;53.692;10.168;2022-07-18T13:53:24;5.95;;;3.40;;
27985;SDS011;15453;53.692;10.168;2022-07-18T13:55:50;5.07;;;3.85;;
27985;SDS011;15453;53.692;10.168;2022-07-18T13:58:15;5.55;;;3.03;;
27985;SDS011;15453;53.692;10.168;2022-07-18T14:00:40;4.50;;;3.03;;
27985;SDS011;15453;53.692;10.168;2022-07-18T14:03:06;12.73;;;5.70;;
27985;SDS011;15453;53.692;10.168;2022-07-18T14:05:33;7.07;;;3.78;;
27985;SDS011;15453;53.692;10.168;2022-07-18T14:07:58;4.47;;;3.40;;
27985;SDS011;15453;53.692;10.168;2022-07-18T14:10:23;4.97;;;2.60;;
27985;SDS011;15453;53.692;10.168;2022-07-18T14:12:49;3.43;;;2.27;;
27985;SDS011;15453;53.692;10.168;2022-07-18T14:15:14;4.30;;;2.70;;
27985;SDS011;15453;53.692;10.168;2022-07-18T14:17:39;4.15;;;2.42;;
27985;SDS011;15453;53.692;10.168;2022-07-18T14:20:05;3.40;;;2.50;;
27985;SDS011;15453;53.692;10.168;2022-07-18T14:22:32;3.75;;;2.28;;
27985;SDS011;15453;53.692;10.168;2022-07-18T14:24:58;5.07;;;2.50;;
27985;SDS011;15453;53.692;10.168;2022-07-18T14:27:23;5.23;;;2.87;;
27985;SDS011;15453;53.692;10.168;2022-07-18T14:29:49;4.33;;;2.60;;
27985;SDS011;15453;53.692;10.168;2022-07-18T14:32:14;4.13;;;2.67;;
27985;SDS011;15453;53.692;10.168;2022-07-18T14:34:39;3.92;;;3.05;;
27985;SDS011;15453;53.692;10.168;2022-07-18T14:37:04;4.60;;;2.83;;
27985;SDS011;15453;53.692;10.168;2022-07-18T14:39:30;2.42;;;2.15;;
27985;SDS011;15453;53.692;10.168;2022-07-18T14:41:55;3.37;;;2.60;;
27985;SDS011;15453;53.692;10.168;2022-07-18T14:44:22;2.50;;;2.15;;
27985;SDS011;15453;53.692;10.168;2022-07-18T14:46:49;2.95;;;2.33;;
27985;SDS011;15453;53.692;10.168;2022-07-18T14:49:14;3.60;;;2.47;;
27985;SDS011;15453;53.692;10.168;2022-07-18T14:51:39;3.40;;;2.85;;
27985;SDS011;15453;53.692;10.168;2022-07-18T14:54:04;2.97;;;2.37;;
27985;SDS011;15453;53.692;10.168;2022-07-18T14:56:30;3.47;;;2.78;;
27985;SDS011;15453;53.692;10.168;2022-07-18T14:58:55;3.40;;;2.63;;
27985;SDS011;15453;53.692;10.168;2022-07-18T15:01:20;5.53;;;3.47;;
27985;SDS011;15453;53.692;10.168;2022-07-18T15:03:46;4.13;;;3.60;;
27985;SDS011;15453;53.692;10.168;2022-07-18T15:06:11;3.50;;;3.00;;
27985;SDS011;15453;53.692;10.168;2022-07-18T15:08:37;3.35;;;2.70;;
27985;SDS011;15453;53.692;10.168;2022-07-18T15:11:02;5.07;;;3.38;;
27985;SDS011;15453;53.692;10.168;2022-07-18T15:13:27;4.40;;;3.50;;
27985;SDS011;15453;53.692;10.168;2022-07-18T15:15:53;4.97;;;3.37;;
27985;SDS011;15453;53.692;10.168;2022-07-18T15:18:18;5.97;;;4.45;;